sensor_id;sensor_type;location;lat;lon;timestamp;P1;durP1;ratioP1;P2;durP2;ratioP2
19903;SDS011;10114;50.970;4.962;2023-03-14T00:01:24;3.47;;;0.77;;
19903;SDS011;10114;50.970;4.962;2023-03-14T00:03:51;7.10;;;1.08;;
19903;SDS011;10114;50.970;4.962;2023-03-14T00:06:17;4.80;;;0.82;;
19903;SDS011;10114;50.970;4.962;2023-03-14T00:08:43;2.33;;;0.68;;
19903;SDS011;10114;50.970;4.962;2023-03-14T00:11:10;5.60;;;0.75;;
19903;SDS011;10114;50.970;4.962;2023-03-14T00:13:37;8.38;;;1.20;;
19903;SDS011;10114;50.970;4.962;2023-03-14T00:16:04;6.40;;;0.82;;
19903;SDS011;10114;50.970;4.962;2023-03-14T00:18:30;3.30;;;1.00;;
19903;SDS011;10114;50.970;4.962;2023-03-14T00:21:00;5.72;;;0.90;;
19903;SDS011;10114;50.970;4.962;2023-03-14T00:23:29;5.63;;;1.63;;
19903;SDS011;10114;50.970;4.962;2023-03-14T00:26:06;7.60;;;1.23;;
19903;SDS011;10114;50.970;4.962;2023-03-14T00:28:32;6.25;;;0.95;;
19903;SDS011;10114;50.970;4.962;2023-03-14T00:30:59;5.97;;;1.27;;
19903;SDS011;10114;50.970;4.962;2023-03-14T00:33:25;5.00;;;1.05;;
19903;SDS011;10114;50.970;4.962;2023-03-14T00:35:55;6.43;;;0.88;;
19903;SDS011;10114;50.970;4.962;2023-03-14T00:38:21;6.68;;;1.20;;
19903;SDS011;10114;50.970;4.962;2023-03-14T00:40:47;6.68;;;1.45;;
19903;SDS011;10114;50.970;4.962;2023-03-14T00:43:13;6.90;;;1.80;;
19903;SDS011;10114;50.970;4.962;2023-03-14T00:45:39;5.72;;;0.95;;
19903;SDS011;10114;50.970;4.962;2023-03-14T00:48:05;9.88;;;1.55;;
19903;SDS011;10114;50.970;4.962;2023-03-14T00:50:31;7.35;;;1.10;;
19903;SDS011;10114;50.970;4.962;2023-03-14T00:52:57;9.00;;;1.60;;
19903;SDS011;10114;50.970;4.962;2023-03-14T00:55:23;7.15;;;1.55;;
19903;SDS011;10114;50.970;4.962;2023-03-14T00:57:49;9.68;;;1.75;;
19903;SDS011;10114;50.970;4.962;2023-03-14T01:00:16;8.13;;;1.65;;
19903;SDS011;10114;50.970;4.962;2023-03-14T01:02:42;7.75;;;1.30;;
19903;SDS011;10114;50.970;4.962;2023-03-14T01:05:08;5.32;;;1.17;;
19903;SDS011;10114;50.970;4.962;2023-03-14T01:07:35;8.93;;;1.30;;
19903;SDS011;10114;50.970;4.962;2023-03-14T01:10:01;10.45;;;1.25;;
19903;SDS011;10114;50.970;4.962;2023-03-14T01:12:27;7.93;;;1.38;;
19903;SDS011;10114;50.970;4.962;2023-03-14T01:14:53;6.53;;;1.42;;
19903;SDS011;10114;50.970;4.962;2023-03-14T01:17:19;8.63;;;1.35;;
19903;SDS011;10114;50.970;4.962;2023-03-14T01:19:46;7.47;;;1.60;;
19903;SDS011;10114;50.970;4.962;2023-03-14T01:22:12;10.48;;;1.70;;
19903;SDS011;10114;50.970;4.962;2023-03-14T01:24:38;6.35;;;0.93;;
19903;SDS011;10114;50.970;4.962;2023-03-14T01:27:04;8.38;;;1.58;;
19903;SDS011;10114;50.970;4.962;2023-03-14T01:29:31;9.07;;;1.40;;
19903;SDS011;10114;50.970;4.962;2023-03-14T01:31:57;10.30;;;1.48;;
19903;SDS011;10114;50.970;4.962;2023-03-14T01:34:23;11.63;;;1.83;;
19903;SDS011;10114;50.970;4.962;2023-03-14T01:36:49;9.85;;;1.63;;
19903;SDS011;10114;50.970;4.962;2023-03-14T01:39:15;10.20;;;1.75;;
19903;SDS011;10114;50.970;4.962;2023-03-14T01:41:41;8.30;;;1.20;;
19903;SDS011;10114;50.970;4.962;2023-03-14T01:44:10;6.25;;;1.20;;
19903;SDS011;10114;50.970;4.962;2023-03-14T01:46:37;9.70;;;1.40;;
19903;SDS011;10114;50.970;4.962;2023-03-14T01:51:44;7.78;;;1.40;;
19903;SDS011;10114;50.970;4.962;2023-03-14T01:56:53;11.30;;;2.13;;
19903;SDS011;10114;50.970;4.962;2023-03-14T01:59:20;10.35;;;1.45;;
19903;SDS011;10114;50.970;4.962;2023-03-14T02:01:46;6.80;;;1.33;;
19903;SDS011;10114;50.970;4.962;2023-03-14T02:04:13;9.15;;;1.27;;
19903;SDS011;10114;50.970;4.962;2023-03-14T02:06:42;15.93;;;2.10;;
19903;SDS011;10114;50.970;4.962;2023-03-14T02:09:10;9.85;;;1.33;;
19903;SDS011;10114;50.970;4.962;2023-03-14T02:11:36;8.13;;;1.60;;
19903;SDS011;10114;50.970;4.962;2023-03-14T02:14:02;8.23;;;1.55;;
19903;SDS011;10114;50.970;4.962;2023-03-14T02:16:29;11.07;;;1.85;;
19903;SDS011;10114;50.970;4.962;2023-03-14T02:18:55;14.63;;;1.67;;
19903;SDS011;10114;50.970;4.962;2023-03-14T02:24:13;9.38;;;1.75;;
19903;SDS011;10114;50.970;4.962;2023-03-14T02:29:26;5.43;;;1.00;;
19903;SDS011;10114;50.970;4.962;2023-03-14T02:31:53;6.78;;;1.00;;
19903;SDS011;10114;50.970;4.962;2023-03-14T02:34:19;10.68;;;1.55;;
19903;SDS011;10114;50.970;4.962;2023-03-14T02:36:48;5.68;;;1.00;;
19903;SDS011;10114;50.970;4.962;2023-03-14T02:39:15;4.88;;;0.82;;
19903;SDS011;10114;50.970;4.962;2023-03-14T02:41:45;4.28;;;0.93;;
19903;SDS011;10114;50.970;4.962;2023-03-14T02:44:14;8.18;;;1.40;;
19903;SDS011;10114;50.970;4.962;2023-03-14T02:46:40;6.95;;;1.00;;
19903;SDS011;10114;50.970;4.962;2023-03-14T02:49:07;6.15;;;1.17;;
19903;SDS011;10114;50.970;4.962;2023-03-14T02:51:34;9.45;;;1.40;;
19903;SDS011;10114;50.970;4.962;2023-03-14T02:54:01;5.10;;;0.98;;
19903;SDS011;10114;50.970;4.962;2023-03-14T02:56:27;6.10;;;1.17;;
19903;SDS011;10114;50.970;4.962;2023-03-14T02:58:53;5.75;;;0.82;;
19903;SDS011;10114;50.970;4.962;2023-03-14T03:01:19;4.70;;;0.85;;
19903;SDS011;10114;50.970;4.962;2023-03-14T03:03:45;6.20;;;0.90;;
19903;SDS011;10114;50.970;4.962;2023-03-14T03:06:11;6.68;;;1.08;;
19903;SDS011;10114;50.970;4.962;2023-03-14T03:08:37;5.43;;;1.00;;
19903;SDS011;10114;50.970;4.962;2023-03-14T03:11:04;6.05;;;0.90;;
19903;SDS011;10114;50.970;4.962;2023-03-14T03:13:30;8.18;;;0.90;;
19903;SDS011;10114;50.970;4.962;2023-03-14T03:15:56;15.40;;;1.60;;
19903;SDS011;10114;50.970;4.962;2023-03-14T03:18:22;5.32;;;0.90;;
19903;SDS011;10114;50.970;4.962;2023-03-14T03:20:48;4.65;;;0.93;;
19903;SDS011;10114;50.970;4.962;2023-03-14T03:23:14;8.30;;;1.15;;
19903;SDS011;10114;50.970;4.962;2023-03-14T03:25:41;6.53;;;1.17;;
19903;SDS011;10114;50.970;4.962;2023-03-14T03:28:07;6.40;;;1.48;;
19903;SDS011;10114;50.970;4.962;2023-03-14T03:30:36;6.93;;;1.23;;
19903;SDS011;10114;50.970;4.962;2023-03-14T03:33:02;3.78;;;1.20;;
19903;SDS011;10114;50.970;4.962;2023-03-14T03:35:28;4.78;;;0.90;;
19903;SDS011;10114;50.970;4.962;2023-03-14T03:37:54;7.25;;;1.58;;
19903;SDS011;10114;50.970;4.962;2023-03-14T03:40:20;10.32;;;1.50;;
19903;SDS011;10114;50.970;4.962;2023-03-14T03:42:46;7.50;;;1.20;;
19903;SDS011;10114;50.970;4.962;2023-03-14T03:45:12;12.77;;;1.60;;
19903;SDS011;10114;50.970;4.962;2023-03-14T03:47:38;5.82;;;1.67;;
19903;SDS011;10114;50.970;4.962;2023-03-14T03:50:05;10.75;;;1.77;;
19903;SDS011;10114;50.970;4.962;2023-03-14T03:52:31;8.90;;;2.30;;
19903;SDS011;10114;50.970;4.962;2023-03-14T03:54:57;12.18;;;2.25;;
19903;SDS011;10114;50.970;4.962;2023-03-14T03:57:23;8.52;;;2.03;;
19903;SDS011;10114;50.970;4.962;2023-03-14T03:59:49;11.38;;;2.17;;
19903;SDS011;10114;50.970;4.962;2023-03-14T04:02:15;12.25;;;2.67;;
19903;SDS011;10114;50.970;4.962;2023-03-14T04:04:41;15.13;;;2.42;;
19903;SDS011;10114;50.970;4.962;2023-03-14T04:07:07;15.77;;;2.20;;
19903;SDS011;10114;50.970;4.962;2023-03-14T04:09:34;11.63;;;2.35;;
19903;SDS011;10114;50.970;4.962;2023-03-14T04:12:00;12.20;;;2.80;;
19903;SDS011;10114;50.970;4.962;2023-03-14T04:14:26;9.32;;;2.55;;
19903;SDS011;10114;50.970;4.962;2023-03-14T04:16:52;10.77;;;1.83;;
19903;SDS011;10114;50.970;4.962;2023-03-14T04:19:18;8.45;;;2.13;;
19903;SDS011;10114;50.970;4.962;2023-03-14T04:21:44;13.98;;;1.95;;
19903;SDS011;10114;50.970;4.962;2023-03-14T04:24:11;8.30;;;1.85;;
19903;SDS011;10114;50.970;4.962;2023-03-14T04:26:38;6.78;;;2.28;;
19903;SDS011;10114;50.970;4.962;2023-03-14T04:29:04;13.63;;;2.15;;
19903;SDS011;10114;50.970;4.962;2023-03-14T04:31:30;7.70;;;1.75;;
19903;SDS011;10114;50.970;4.962;2023-03-14T04:33:56;7.78;;;2.30;;
19903;SDS011;10114;50.970;4.962;2023-03-14T04:36:22;7.40;;;2.08;;
19903;SDS011;10114;50.970;4.962;2023-03-14T04:38:48;8.43;;;1.88;;
19903;SDS011;10114;50.970;4.962;2023-03-14T04:41:14;6.25;;;2.10;;
19903;SDS011;10114;50.970;4.962;2023-03-14T04:43:40;7.25;;;2.05;;
19903;SDS011;10114;50.970;4.962;2023-03-14T04:46:06;5.38;;;1.63;;
19903;SDS011;10114;50.970;4.962;2023-03-14T04:48:32;7.40;;;1.98;;
19903;SDS011;10114;50.970;4.962;2023-03-14T04:50:58;12.25;;;2.10;;
19903;SDS011;10114;50.970;4.962;2023-03-14T04:53:24;8.27;;;1.50;;
19903;SDS011;10114;50.970;4.962;2023-03-14T04:55:51;9.50;;;1.88;;
19903;SDS011;10114;50.970;4.962;2023-03-14T04:58:17;4.78;;;1.50;;
19903;SDS011;10114;50.970;4.962;2023-03-14T05:00:44;11.18;;;2.05;;
19903;SDS011;10114;50.970;4.962;2023-03-14T05:03:10;8.00;;;2.13;;
19903;SDS011;10114;50.970;4.962;2023-03-14T05:05:36;10.07;;;2.00;;
19903;SDS011;10114;50.970;4.962;2023-03-14T05:08:02;11.63;;;2.30;;
19903;SDS011;10114;50.970;4.962;2023-03-14T05:10:28;8.98;;;2.35;;
19903;SDS011;10114;50.970;4.962;2023-03-14T05:12:54;8.52;;;2.45;;
19903;SDS011;10114;50.970;4.962;2023-03-14T05:15:20;7.05;;;1.75;;
19903;SDS011;10114;50.970;4.962;2023-03-14T05:17:46;6.65;;;1.83;;
19903;SDS011;10114;50.970;4.962;2023-03-14T05:20:14;8.98;;;2.42;;
19903;SDS011;10114;50.970;4.962;2023-03-14T05:22:40;5.20;;;2.00;;
19903;SDS011;10114;50.970;4.962;2023-03-14T05:25:06;6.50;;;1.98;;
19903;SDS011;10114;50.970;4.962;2023-03-14T05:27:33;7.80;;;1.98;;
19903;SDS011;10114;50.970;4.962;2023-03-14T05:29:59;3.95;;;1.55;;
19903;SDS011;10114;50.970;4.962;2023-03-14T05:32:25;4.75;;;1.90;;
19903;SDS011;10114;50.970;4.962;2023-03-14T05:34:51;8.23;;;1.92;;
19903;SDS011;10114;50.970;4.962;2023-03-14T05:37:17;6.68;;;2.15;;
19903;SDS011;10114;50.970;4.962;2023-03-14T05:39:43;5.35;;;1.83;;
19903;SDS011;10114;50.970;4.962;2023-03-14T05:42:09;8.10;;;2.47;;
19903;SDS011;10114;50.970;4.962;2023-03-14T05:44:35;6.55;;;1.75;;
19903;SDS011;10114;50.970;4.962;2023-03-14T05:47:01;5.40;;;1.80;;
19903;SDS011;10114;50.970;4.962;2023-03-14T05:49:27;6.18;;;2.10;;
19903;SDS011;10114;50.970;4.962;2023-03-14T05:51:53;3.90;;;1.73;;
19903;SDS011;10114;50.970;4.962;2023-03-14T05:54:19;6.47;;;1.90;;
19903;SDS011;10114;50.970;4.962;2023-03-14T05:56:45;8.48;;;2.03;;
19903;SDS011;10114;50.970;4.962;2023-03-14T05:59:11;4.95;;;1.70;;
19903;SDS011;10114;50.970;4.962;2023-03-14T06:01:38;8.10;;;2.10;;
19903;SDS011;10114;50.970;4.962;2023-03-14T06:04:04;5.25;;;1.65;;
19903;SDS011;10114;50.970;4.962;2023-03-14T06:06:31;5.40;;;1.77;;
19903;SDS011;10114;50.970;4.962;2023-03-14T06:08:57;4.70;;;1.77;;
19903;SDS011;10114;50.970;4.962;2023-03-14T06:11:23;5.20;;;2.20;;
19903;SDS011;10114;50.970;4.962;2023-03-14T06:13:49;5.75;;;1.88;;
19903;SDS011;10114;50.970;4.962;2023-03-14T06:16:15;6.95;;;1.90;;
19903;SDS011;10114;50.970;4.962;2023-03-14T06:18:41;5.75;;;2.13;;
19903;SDS011;10114;50.970;4.962;2023-03-14T06:21:07;7.65;;;2.03;;
19903;SDS011;10114;50.970;4.962;2023-03-14T06:23:33;5.15;;;1.90;;
19903;SDS011;10114;50.970;4.962;2023-03-14T06:25:59;5.38;;;1.92;;
19903;SDS011;10114;50.970;4.962;2023-03-14T06:28:25;5.80;;;2.05;;
19903;SDS011;10114;50.970;4.962;2023-03-14T06:30:51;6.70;;;2.17;;
19903;SDS011;10114;50.970;4.962;2023-03-14T06:33:17;5.47;;;2.20;;
19903;SDS011;10114;50.970;4.962;2023-03-14T06:35:44;8.70;;;2.53;;
19903;SDS011;10114;50.970;4.962;2023-03-14T06:38:10;6.55;;;2.45;;
19903;SDS011;10114;50.970;4.962;2023-03-14T06:40:36;5.90;;;2.70;;
19903;SDS011;10114;50.970;4.962;2023-03-14T06:43:01;6.53;;;2.60;;
19903;SDS011;10114;50.970;4.962;2023-03-14T06:45:27;8.60;;;2.67;;
19903;SDS011;10114;50.970;4.962;2023-03-14T06:47:53;6.85;;;2.55;;
19903;SDS011;10114;50.970;4.962;2023-03-14T06:50:19;8.88;;;2.85;;
19903;SDS011;10114;50.970;4.962;2023-03-14T06:52:47;9.75;;;3.30;;
19903;SDS011;10114;50.970;4.962;2023-03-14T06:55:16;9.75;;;3.13;;
19903;SDS011;10114;50.970;4.962;2023-03-14T06:57:42;8.80;;;3.80;;
19903;SDS011;10114;50.970;4.962;2023-03-14T07:00:09;16.52;;;6.50;;
19903;SDS011;10114;50.970;4.962;2023-03-14T07:02:35;12.13;;;5.93;;
19903;SDS011;10114;50.970;4.962;2023-03-14T07:05:01;9.45;;;3.70;;
19903;SDS011;10114;50.970;4.962;2023-03-14T07:07:28;10.15;;;4.63;;
19903;SDS011;10114;50.970;4.962;2023-03-14T07:09:54;10.52;;;3.67;;
19903;SDS011;10114;50.970;4.962;2023-03-14T07:12:20;8.27;;;3.88;;
19903;SDS011;10114;50.970;4.962;2023-03-14T07:14:46;11.20;;;3.33;;
19903;SDS011;10114;50.970;4.962;2023-03-14T07:17:12;10.73;;;3.67;;
19903;SDS011;10114;50.970;4.962;2023-03-14T07:19:38;9.45;;;4.18;;
19903;SDS011;10114;50.970;4.962;2023-03-14T07:22:05;7.28;;;3.40;;
19903;SDS011;10114;50.970;4.962;2023-03-14T07:24:33;18.85;;;8.13;;
19903;SDS011;10114;50.970;4.962;2023-03-14T07:26:59;2.63;;;0.70;;
19903;SDS011;10114;50.970;4.962;2023-03-14T07:29:25;0.95;;;0.35;;
19903;SDS011;10114;50.970;4.962;2023-03-14T07:31:51;1.77;;;0.73;;
19903;SDS011;10114;50.970;4.962;2023-03-14T07:34:17;1.88;;;0.88;;
19903;SDS011;10114;50.970;4.962;2023-03-14T07:36:44;1.55;;;0.70;;
19903;SDS011;10114;50.970;4.962;2023-03-14T07:39:10;0.85;;;0.60;;
19903;SDS011;10114;50.970;4.962;2023-03-14T07:41:36;1.73;;;0.73;;
19903;SDS011;10114;50.970;4.962;2023-03-14T07:44:02;2.15;;;0.98;;
19903;SDS011;10114;50.970;4.962;2023-03-14T07:46:28;2.40;;;1.15;;
19903;SDS011;10114;50.970;4.962;2023-03-14T07:48:54;3.33;;;1.45;;
19903;SDS011;10114;50.970;4.962;2023-03-14T07:51:20;5.00;;;2.10;;
19903;SDS011;10114;50.970;4.962;2023-03-14T07:53:46;3.45;;;2.05;;
19903;SDS011;10114;50.970;4.962;2023-03-14T07:56:12;4.28;;;2.13;;
19903;SDS011;10114;50.970;4.962;2023-03-14T07:58:38;3.00;;;1.13;;
19903;SDS011;10114;50.970;4.962;2023-03-14T08:01:04;4.68;;;1.58;;
19903;SDS011;10114;50.970;4.962;2023-03-14T08:03:30;2.13;;;1.05;;
19903;SDS011;10114;50.970;4.962;2023-03-14T08:05:56;5.03;;;1.63;;
19903;SDS011;10114;50.970;4.962;2023-03-14T08:08:22;4.43;;;1.48;;
19903;SDS011;10114;50.970;4.962;2023-03-14T08:10:48;5.47;;;1.38;;
19903;SDS011;10114;50.970;4.962;2023-03-14T08:13:14;1.80;;;1.08;;
19903;SDS011;10114;50.970;4.962;2023-03-14T08:15:40;3.85;;;1.33;;
19903;SDS011;10114;50.970;4.962;2023-03-14T08:18:06;9.50;;;1.77;;
19903;SDS011;10114;50.970;4.962;2023-03-14T08:20:32;0.85;;;0.75;;
19903;SDS011;10114;50.970;4.962;2023-03-14T08:22:59;7.38;;;1.63;;
19903;SDS011;10114;50.970;4.962;2023-03-14T08:25:26;4.15;;;1.30;;
19903;SDS011;10114;50.970;4.962;2023-03-14T08:27:53;3.67;;;1.13;;
19903;SDS011;10114;50.970;4.962;2023-03-14T08:30:20;1.90;;;0.80;;
19903;SDS011;10114;50.970;4.962;2023-03-14T08:32:46;4.10;;;1.35;;
19903;SDS011;10114;50.970;4.962;2023-03-14T08:35:12;11.73;;;2.08;;
19903;SDS011;10114;50.970;4.962;2023-03-14T08:37:38;3.10;;;1.30;;
19903;SDS011;10114;50.970;4.962;2023-03-14T08:40:05;6.28;;;1.33;;
19903;SDS011;10114;50.970;4.962;2023-03-14T08:42:34;8.50;;;2.47;;
19903;SDS011;10114;50.970;4.962;2023-03-14T08:45:00;3.50;;;1.35;;
19903;SDS011;10114;50.970;4.962;2023-03-14T08:47:26;3.65;;;1.25;;
19903;SDS011;10114;50.970;4.962;2023-03-14T08:49:53;5.40;;;1.92;;
19903;SDS011;10114;50.970;4.962;2023-03-14T08:52:19;5.32;;;1.85;;
19903;SDS011;10114;50.970;4.962;2023-03-14T08:54:45;4.15;;;2.03;;
19903;SDS011;10114;50.970;4.962;2023-03-14T08:57:11;4.72;;;1.80;;
19903;SDS011;10114;50.970;4.962;2023-03-14T08:59:37;4.10;;;1.58;;
19903;SDS011;10114;50.970;4.962;2023-03-14T09:02:03;2.65;;;1.48;;
19903;SDS011;10114;50.970;4.962;2023-03-14T09:04:30;2.72;;;1.38;;
19903;SDS011;10114;50.970;4.962;2023-03-14T09:06:56;2.20;;;0.75;;
19903;SDS011;10114;50.970;4.962;2023-03-14T09:09:23;5.45;;;1.08;;
19903;SDS011;10114;50.970;4.962;2023-03-14T09:11:49;2.08;;;0.98;;
19903;SDS011;10114;50.970;4.962;2023-03-14T09:14:15;1.63;;;0.82;;
19903;SDS011;10114;50.970;4.962;2023-03-14T09:16:41;1.88;;;0.80;;
19903;SDS011;10114;50.970;4.962;2023-03-14T09:19:07;0.70;;;0.40;;
19903;SDS011;10114;50.970;4.962;2023-03-14T09:21:33;1.52;;;0.52;;
19903;SDS011;10114;50.970;4.962;2023-03-14T09:23:59;1.15;;;0.60;;
19903;SDS011;10114;50.970;4.962;2023-03-14T09:26:25;1.02;;;0.40;;
19903;SDS011;10114;50.970;4.962;2023-03-14T09:28:51;2.45;;;1.20;;
19903;SDS011;10114;50.970;4.962;2023-03-14T09:31:17;3.88;;;1.08;;
19903;SDS011;10114;50.970;4.962;2023-03-14T09:33:43;3.20;;;1.20;;
19903;SDS011;10114;50.970;4.962;2023-03-14T09:36:09;3.05;;;0.93;;
19903;SDS011;10114;50.970;4.962;2023-03-14T09:38:36;1.25;;;0.68;;
19903;SDS011;10114;50.970;4.962;2023-03-14T09:41:03;2.47;;;0.80;;
19903;SDS011;10114;50.970;4.962;2023-03-14T09:43:29;0.95;;;0.57;;
19903;SDS011;10114;50.970;4.962;2023-03-14T09:45:55;2.65;;;0.60;;
19903;SDS011;10114;50.970;4.962;2023-03-14T09:48:25;1.10;;;0.57;;
19903;SDS011;10114;50.970;4.962;2023-03-14T09:50:53;1.30;;;0.55;;
19903;SDS011;10114;50.970;4.962;2023-03-14T09:53:24;3.35;;;1.30;;
19903;SDS011;10114;50.970;4.962;2023-03-14T09:55:51;1.98;;;0.55;;
19903;SDS011;10114;50.970;4.962;2023-03-14T09:58:19;7.68;;;1.02;;
19903;SDS011;10114;50.970;4.962;2023-03-14T10:00:46;8.77;;;1.00;;
19903;SDS011;10114;50.970;4.962;2023-03-14T10:05:38;2.00;;;0.70;;
19903;SDS011;10114;50.970;4.962;2023-03-14T10:08:05;2.10;;;0.90;;
19903;SDS011;10114;50.970;4.962;2023-03-14T10:10:31;1.58;;;0.60;;
19903;SDS011;10114;50.970;4.962;2023-03-14T10:15:35;5.82;;;1.10;;
19903;SDS011;10114;50.970;4.962;2023-03-14T10:18:02;0.98;;;0.50;;
19903;SDS011;10114;50.970;4.962;2023-03-14T10:20:33;2.20;;;0.65;;
19903;SDS011;10114;50.970;4.962;2023-03-14T10:23:00;2.92;;;0.73;;
19903;SDS011;10114;50.970;4.962;2023-03-14T10:25:28;1.38;;;0.60;;
19903;SDS011;10114;50.970;4.962;2023-03-14T10:27:54;1.75;;;0.50;;
19903;SDS011;10114;50.970;4.962;2023-03-14T10:30:32;0.65;;;0.40;;
19903;SDS011;10114;50.970;4.962;2023-03-14T10:33:07;3.10;;;0.60;;
19903;SDS011;10114;50.970;4.962;2023-03-14T10:35:34;4.85;;;0.50;;
19903;SDS011;10114;50.970;4.962;2023-03-14T10:38:01;1.50;;;0.70;;
19903;SDS011;10114;50.970;4.962;2023-03-14T10:40:29;3.83;;;0.73;;
19903;SDS011;10114;50.970;4.962;2023-03-14T10:42:57;3.03;;;1.38;;
19903;SDS011;10114;50.970;4.962;2023-03-14T10:47:59;3.08;;;1.10;;
19903;SDS011;10114;50.970;4.962;2023-03-14T10:50:31;3.75;;;1.38;;
19903;SDS011;10114;50.970;4.962;2023-03-14T10:53:01;7.50;;;2.25;;
19903;SDS011;10114;50.970;4.962;2023-03-14T10:55:39;2.17;;;0.90;;
19903;SDS011;10114;50.970;4.962;2023-03-14T10:58:16;5.65;;;1.35;;
19903;SDS011;10114;50.970;4.962;2023-03-14T11:00:42;5.13;;;1.90;;
19903;SDS011;10114;50.970;4.962;2023-03-14T11:03:11;3.70;;;1.83;;
19903;SDS011;10114;50.970;4.962;2023-03-14T11:05:49;6.15;;;2.50;;
19903;SDS011;10114;50.970;4.962;2023-03-14T11:10:43;5.68;;;1.75;;
19903;SDS011;10114;50.970;4.962;2023-03-14T11:13:29;5.05;;;1.77;;
19903;SDS011;10114;50.970;4.962;2023-03-14T11:16:03;6.88;;;1.98;;
19903;SDS011;10114;50.970;4.962;2023-03-14T11:29:23;5.25;;;1.95;;
19903;SDS011;10114;50.970;4.962;2023-03-14T11:31:52;5.38;;;1.80;;
19903;SDS011;10114;50.970;4.962;2023-03-14T11:36:59;5.93;;;2.28;;
19903;SDS011;10114;50.970;4.962;2023-03-14T11:39:26;5.53;;;2.63;;
19903;SDS011;10114;50.970;4.962;2023-03-14T11:41:55;5.05;;;2.40;;
19903;SDS011;10114;50.970;4.962;2023-03-14T11:44:33;5.93;;;1.88;;
19903;SDS011;10114;50.970;4.962;2023-03-14T11:49:34;11.30;;;5.68;;
19903;SDS011;10114;50.970;4.962;2023-03-14T11:52:15;4.80;;;2.47;;
19903;SDS011;10114;50.970;4.962;2023-03-14T11:54:43;6.85;;;3.80;;
19903;SDS011;10114;50.970;4.962;2023-03-14T11:57:18;6.55;;;2.47;;
19903;SDS011;10114;50.970;4.962;2023-03-14T11:59:47;6.95;;;2.03;;
19903;SDS011;10114;50.970;4.962;2023-03-14T12:04:42;6.57;;;2.20;;
19903;SDS011;10114;50.970;4.962;2023-03-14T12:07:14;4.35;;;1.80;;
19903;SDS011;10114;50.970;4.962;2023-03-14T12:09:43;8.27;;;2.20;;
19903;SDS011;10114;50.970;4.962;2023-03-14T12:12:11;7.30;;;2.38;;
19903;SDS011;10114;50.970;4.962;2023-03-14T12:14:44;5.57;;;2.20;;
19903;SDS011;10114;50.970;4.962;2023-03-14T12:22:53;5.30;;;1.83;;
19903;SDS011;10114;50.970;4.962;2023-03-14T12:25:22;4.30;;;1.05;;
19903;SDS011;10114;50.970;4.962;2023-03-14T12:35:38;5.90;;;1.02;;
19903;SDS011;10114;50.970;4.962;2023-03-14T12:38:08;3.20;;;0.90;;
19903;SDS011;10114;50.970;4.962;2023-03-14T12:40:37;4.25;;;1.10;;
19903;SDS011;10114;50.970;4.962;2023-03-14T12:43:23;5.40;;;1.08;;
19903;SDS011;10114;50.970;4.962;2023-03-14T12:48:49;5.95;;;1.65;;
19903;SDS011;10114;50.970;4.962;2023-03-14T12:51:16;6.57;;;1.80;;
19903;SDS011;10114;50.970;4.962;2023-03-14T12:53:54;7.05;;;2.25;;
19903;SDS011;10114;50.970;4.962;2023-03-14T13:01:27;9.25;;;1.67;;
19903;SDS011;10114;50.970;4.962;2023-03-14T13:03:56;6.63;;;1.45;;
19903;SDS011;10114;50.970;4.962;2023-03-14T13:12:10;4.85;;;1.52;;
19903;SDS011;10114;50.970;4.962;2023-03-14T13:14:40;6.65;;;2.38;;
19903;SDS011;10114;50.970;4.962;2023-03-14T13:17:13;10.82;;;2.25;;
19903;SDS011;10114;50.970;4.962;2023-03-14T13:19:39;6.38;;;1.83;;
19903;SDS011;10114;50.970;4.962;2023-03-14T13:22:45;12.05;;;1.90;;
19903;SDS011;10114;50.970;4.962;2023-03-14T13:25:03;13.05;;;2.33;;
19903;SDS011;10114;50.970;4.962;2023-03-14T13:27:30;9.00;;;1.67;;
19903;SDS011;10114;50.970;4.962;2023-03-14T13:29:57;10.80;;;2.22;;
19903;SDS011;10114;50.970;4.962;2023-03-14T13:32:27;6.95;;;1.98;;
19903;SDS011;10114;50.970;4.962;2023-03-14T13:34:57;14.18;;;2.80;;
19903;SDS011;10114;50.970;4.962;2023-03-14T13:37:24;10.48;;;2.70;;
19903;SDS011;10114;50.970;4.962;2023-03-14T13:39:55;15.88;;;1.85;;
19903;SDS011;10114;50.970;4.962;2023-03-14T13:42:21;8.65;;;1.80;;
19903;SDS011;10114;50.970;4.962;2023-03-14T13:44:51;6.88;;;1.60;;
19903;SDS011;10114;50.970;4.962;2023-03-14T13:47:18;12.80;;;1.55;;
19903;SDS011;10114;50.970;4.962;2023-03-14T13:49:44;12.20;;;1.65;;
19903;SDS011;10114;50.970;4.962;2023-03-14T13:52:21;10.07;;;1.25;;
19903;SDS011;10114;50.970;4.962;2023-03-14T13:54:47;9.65;;;1.67;;
19903;SDS011;10114;50.970;4.962;2023-03-14T13:57:13;11.90;;;1.83;;
19903;SDS011;10114;50.970;4.962;2023-03-14T13:59:39;15.23;;;1.88;;
19903;SDS011;10114;50.970;4.962;2023-03-14T14:02:14;9.68;;;1.60;;
19903;SDS011;10114;50.970;4.962;2023-03-14T14:04:40;17.17;;;2.30;;
19903;SDS011;10114;50.970;4.962;2023-03-14T14:07:07;12.02;;;2.28;;
19903;SDS011;10114;50.970;4.962;2023-03-14T14:09:38;8.90;;;1.92;;
19903;SDS011;10114;50.970;4.962;2023-03-14T14:14:34;11.52;;;1.88;;
19903;SDS011;10114;50.970;4.962;2023-03-14T14:17:03;8.75;;;1.55;;
19903;SDS011;10114;50.970;4.962;2023-03-14T14:19:30;8.32;;;1.65;;
19903;SDS011;10114;50.970;4.962;2023-03-14T14:21:58;10.18;;;2.15;;
19903;SDS011;10114;50.970;4.962;2023-03-14T14:24:25;11.02;;;2.10;;
19903;SDS011;10114;50.970;4.962;2023-03-14T14:26:54;12.63;;;1.67;;
19903;SDS011;10114;50.970;4.962;2023-03-14T14:29:28;11.10;;;1.63;;
19903;SDS011;10114;50.970;4.962;2023-03-14T14:32:02;14.02;;;1.98;;
19903;SDS011;10114;50.970;4.962;2023-03-14T14:34:28;4.53;;;1.23;;
19903;SDS011;10114;50.970;4.962;2023-03-14T14:36:54;16.70;;;1.73;;
19903;SDS011;10114;50.970;4.962;2023-03-14T14:39:24;12.80;;;1.80;;
19903;SDS011;10114;50.970;4.962;2023-03-14T14:41:51;14.32;;;2.65;;
19903;SDS011;10114;50.970;4.962;2023-03-14T14:44:36;14.13;;;1.75;;
19903;SDS011;10114;50.970;4.962;2023-03-14T14:47:02;9.75;;;2.08;;
19903;SDS011;10114;50.970;4.962;2023-03-14T14:49:30;8.75;;;2.10;;
19903;SDS011;10114;50.970;4.962;2023-03-14T14:52:16;5.53;;;1.48;;
19903;SDS011;10114;50.970;4.962;2023-03-14T14:54:44;12.52;;;1.80;;
19903;SDS011;10114;50.970;4.962;2023-03-14T14:57:18;14.25;;;1.92;;
19903;SDS011;10114;50.970;4.962;2023-03-14T14:59:44;8.90;;;1.83;;
19903;SDS011;10114;50.970;4.962;2023-03-14T15:02:32;8.20;;;2.25;;
19903;SDS011;10114;50.970;4.962;2023-03-14T15:05:01;8.82;;;1.05;;
19903;SDS011;10114;50.970;4.962;2023-03-14T15:07:27;6.63;;;1.25;;
19903;SDS011;10114;50.970;4.962;2023-03-14T15:09:53;3.80;;;0.90;;
19903;SDS011;10114;50.970;4.962;2023-03-14T15:12:19;9.48;;;1.17;;
19903;SDS011;10114;50.970;4.962;2023-03-14T15:14:46;4.20;;;0.82;;
19903;SDS011;10114;50.970;4.962;2023-03-14T15:17:12;4.93;;;1.00;;
19903;SDS011;10114;50.970;4.962;2023-03-14T15:19:39;6.05;;;0.95;;
19903;SDS011;10114;50.970;4.962;2023-03-14T15:22:08;4.20;;;0.60;;
19903;SDS011;10114;50.970;4.962;2023-03-14T15:24:35;3.60;;;0.55;;
19903;SDS011;10114;50.970;4.962;2023-03-14T15:27:01;5.65;;;0.73;;
19903;SDS011;10114;50.970;4.962;2023-03-14T15:29:27;4.72;;;0.98;;
19903;SDS011;10114;50.970;4.962;2023-03-14T15:31:53;5.05;;;1.05;;
19903;SDS011;10114;50.970;4.962;2023-03-14T15:34:19;4.63;;;1.30;;
19903;SDS011;10114;50.970;4.962;2023-03-14T15:36:45;6.93;;;1.52;;
19903;SDS011;10114;50.970;4.962;2023-03-14T15:39:11;4.85;;;0.90;;
19903;SDS011;10114;50.970;4.962;2023-03-14T15:41:37;5.85;;;0.95;;
19903;SDS011;10114;50.970;4.962;2023-03-14T15:44:03;2.97;;;1.02;;
19903;SDS011;10114;50.970;4.962;2023-03-14T15:46:29;4.13;;;0.55;;
19903;SDS011;10114;50.970;4.962;2023-03-14T15:48:55;5.65;;;0.95;;
19903;SDS011;10114;50.970;4.962;2023-03-14T15:51:21;7.32;;;0.90;;
19903;SDS011;10114;50.970;4.962;2023-03-14T15:53:47;3.38;;;0.70;;
19903;SDS011;10114;50.970;4.962;2023-03-14T15:56:17;6.03;;;1.17;;